Craig G — WDB5332 — position and weather

sailwx.info

Track history (hours):
 
Tides and Currents Weather Stations Pressure Air Temp Water Temp Dewpoint Dewpoint Depression Visibility Wind Speed Wind Dir Waves Ship Positions

Craig G

Owner: San Diego Towing & Marine Services,Inc., San Diego, CA. More information available from US FCC via Universal Licensing System and Coast Guard Vessel Documentation Center.

Last reported at 2015-May-05 22:34 UTC. Time now 2015-May-06 14:30 UTC.
Position N 32°43' W 117°11'.

Length 28 m; draft 2 m.

Type: Other ship. MMSI: 366908460.

Date/timePositionNaut miles runAvg speedWind from/ knotsBaromVisibWave heightAir tempDewpointWater temp
2015-May-05 22:34N 32°43' W 117°11'2 2.0
2015-May-05 21:32N 32°43' W 117°14'4 3.9
2015-May-05 20:34N 32°42' W 117°09'0 0.0
2015-May-05 16:08N 32°42' W 117°09'0 0.0
2015-May-05 15:27N 32°42' W 117°09'0 0.0
2015-May-04 20:33N 32°42' W 117°09'9 8.8
2015-May-04 19:33N 32°37' W 117°18'8 7.6
2015-May-04 18:33N 32°43' W 117°13'2 1.9
2015-May-04 17:33N 32°41' W 117°14'5 4.9
2015-May-04 16:33N 32°38' W 117°18'8 8.2
2015-May-04 15:33N 32°42' W 117°09'  
Track history (hours):
 
Tides and Currents Weather Stations Pressure Air Temp Water Temp Dewpoint Dewpoint Depression Visibility Wind Speed Wind Dir Waves Ship Positions

Craig G

Owner: San Diego Towing & Marine Services,Inc., San Diego, CA. More information available from US FCC via Universal Licensing System and Coast Guard Vessel Documentation Center.

Last reported at 2015-May-05 22:34 UTC. Time now 2015-May-06 14:30 UTC.
Position N 32°43' W 117°11'.

Length 28 m; draft 2 m.

Type: Other ship. MMSI: 366908460.

Date/timePositionNaut miles runAvg speedWind from/ knotsBaromVisibWave heightAir tempDewpointWater temp
2015-May-05 22:34N 32°43' W 117°11'2 2.0
2015-May-05 21:32N 32°43' W 117°14'4 3.9
2015-May-05 20:34N 32°42' W 117°09'0 0.0
2015-May-05 16:08N 32°42' W 117°09'0 0.0
2015-May-05 15:27N 32°42' W 117°09'0 0.0
2015-May-04 20:33N 32°42' W 117°09'9 8.8
2015-May-04 19:33N 32°37' W 117°18'8 7.6
2015-May-04 18:33N 32°43' W 117°13'2 1.9
2015-May-04 17:33N 32°41' W 117°14'5 4.9
2015-May-04 16:33N 32°38' W 117°18'8 8.2
2015-May-04 15:33N 32°42' W 117°09'  

Dump ship's entire track history